Time;durP1;ratioP1;P1;durP2;ratioP2;P2;SDS_P1;SDS_P2;PMS_P1;PMS_P2;Temp;Humidity;BMP_temperature;BMP_pressure;BME280_temperature;BME280_humidity;BME280_pressure;Samples;Min_cycle;Max_cycle;Signal;HPM_P1;HPM_P2
2023/02/02 00:01:08;;;;;;;17.05;11.07;;;;;;;2.30;90.06;96998.09;5088501;28;20034;-66
2023/02/02 00:03:34;;;;;;;17.30;11.07;;;;;;;2.28;90.65;97000.72;5074533;28;20028;-66
2023/02/02 00:06:00;;;;;;;26.05;17.77;;;;;;;2.27;90.28;96993.84;5089402;28;20501;-66
2023/02/02 00:08:25;;;;;;;20.60;14.25;;;;;;;2.27;90.41;96993.00;5087952;28;20027;-71
2023/02/02 00:10:50;;;;;;;14.38;10.63;;;;;;;2.27;89.78;96990.41;5085289;28;20051;-64
2023/02/02 00:13:16;;;;;;;11.05;8.77;;;;;;;2.26;90.16;96993.91;5088299;28;20493;-64
2023/02/02 00:15:41;;;;;;;10.57;7.68;;;;;;;2.27;91.00;96993.84;5086358;28;20054;-65
2023/02/02 00:18:07;;;;;;;11.90;8.30;;;;;;;2.25;91.42;97000.84;5086565;28;20490;-65
2023/02/02 00:20:35;;;;;;;10.95;8.07;;;;;;;2.26;90.59;97002.53;5087508;28;20024;-65
2023/02/02 00:23:01;;;;;;;10.25;7.50;;;;;;;2.47;89.68;96988.81;5087099;28;20460;-64
2023/02/02 00:25:27;;;;;;;12.23;6.88;;;;;;;2.38;89.04;96995.19;5069558;28;20082;-64
2023/02/02 00:27:53;;;;;;;12.55;6.70;;;;;;;2.39;89.37;96992.53;5089815;28;20493;-70
2023/02/02 00:30:18;;;;;;;8.60;6.57;;;;;;;2.40;89.81;96994.22;5093948;28;20024;-60
2023/02/02 00:32:47;;;;;;;9.93;6.75;;;;;;;2.49;88.72;96982.63;5089333;28;20103;-62
2023/02/02 00:35:13;;;;;;;9.07;6.53;;;;;;;2.40;88.92;96986.41;5089493;28;20459;-61
2023/02/02 00:37:39;;;;;;;9.63;6.95;;;;;;;2.44;88.31;96984.56;5087594;28;20508;-61
2023/02/02 00:40:05;;;;;;;15.20;9.80;;;;;;;2.42;88.82;96981.16;5086699;28;20024;-61
2023/02/02 00:42:30;;;;;;;11.07;9.00;;;;;;;2.36;88.71;96976.22;5088345;28;20016;-61
2023/02/02 00:47:40;;;;;;;11.25;7.88;;;;;;;2.37;89.55;96972.72;5090519;28;20042;-73
2023/02/02 00:50:06;;;;;;;9.57;6.55;;;;;;;2.28;90.05;96976.50;5087638;28;20023;-60
2023/02/02 00:52:31;;;;;;;10.80;6.55;;;;;;;2.26;89.50;96979.16;5088972;28;20037;-60
2023/02/02 00:54:57;;;;;;;7.82;6.10;;;;;;;2.36;88.69;96978.81;5079711;28;20035;-59
2023/02/02 00:57:22;;;;;;;8.43;6.28;;;;;;;2.37;88.35;96978.75;5092585;28;20477;-60
2023/02/02 00:59:48;;;;;;;9.48;5.85;;;;;;;2.33;88.00;96971.97;5085164;28;20491;-59
2023/02/02 01:02:13;;;;;;;9.98;6.22;;;;;;;2.32;88.63;96972.03;5091915;28;20024;-60
2023/02/02 01:04:39;;;;;;;10.30;6.63;;;;;;;2.27;88.85;96969.63;5092797;28;20500;-60
2023/02/02 01:07:04;;;;;;;9.45;6.10;;;;;;;2.21;89.46;96970.69;5089691;28;20086;-73
2023/02/02 01:09:29;;;;;;;7.10;6.50;;;;;;;2.19;90.11;96972.50;5091411;28;20405;-60
2023/02/02 01:11:55;;;;;;;8.43;6.18;;;;;;;2.17;89.93;96957.88;5093148;28;20059;-65
2023/02/02 01:14:20;;;;;;;7.57;5.30;;;;;;;2.15;89.90;96958.78;5090855;28;20031;-65
2023/02/02 01:16:46;;;;;;;6.95;5.93;;;;;;;2.13;89.96;96964.97;5089949;28;20404;-66
2023/02/02 01:19:13;;;;;;;10.02;6.13;;;;;;;2.10;90.43;96952.91;5092627;28;20033;-66
2023/02/02 01:21:38;;;;;;;6.65;6.05;;;;;;;2.08;90.43;96954.72;5092595;28;20053;-66
2023/02/02 01:24:04;;;;;;;7.95;6.05;;;;;;;2.09;90.72;96953.81;5096677;28;20024;-66
2023/02/02 01:26:29;;;;;;;8.07;6.18;;;;;;;2.11;90.71;96957.22;5088641;28;20032;-62
2023/02/02 01:28:54;;;;;;;7.00;5.60;;;;;;;2.09;90.43;96952.97;5084569;28;20554;-73
2023/02/02 01:31:20;;;;;;;6.80;5.70;;;;;;;2.08;90.43;96951.28;5096513;28;20540;-71
2023/02/02 01:33:47;;;;;;;7.95;5.53;;;;;;;2.06;90.96;96947.88;5092120;28;21392;-71
2023/02/02 01:36:15;;;;;;;8.45;6.05;;;;;;;2.05;90.41;96946.19;5085768;28;20516;-71
2023/02/02 01:38:41;;;;;;;6.25;5.32;;;;;;;1.99;91.34;96942.09;5091223;28;20074;-71
2023/02/02 01:41:07;;;;;;;6.38;5.75;;;;;;;1.99;90.97;96929.13;5094206;28;20073;-71
2023/02/02 01:43:42;;;;;;;5.82;5.25;;;;;;;1.91;91.23;96933.75;5086797;28;20047;-71
2023/02/02 01:46:14;;;;;;;8.48;6.50;;;;;;;1.89;91.26;96936.41;5092859;28;20028;-60
2023/02/02 01:48:42;;;;;;;6.82;6.15;;;;;;;1.88;91.89;96926.06;5086892;28;20032;-66
2023/02/02 01:51:14;;;;;;;8.98;5.90;;;;;;;1.80;92.08;96927.22;5088665;28;20070;-66
2023/02/02 01:53:42;;;;;;;8.25;5.65;;;;;;;1.76;92.18;96925.59;5086274;28;20709;-66
2023/02/02 01:56:10;;;;;;;6.68;5.72;;;;;;;1.68;93.56;96923.31;5086532;28;20020;-66
2023/02/02 01:58:39;;;;;;;9.65;6.03;;;;;;;1.59;93.42;96928.00;5090002;28;20103;-66
2023/02/02 02:01:05;;;;;;;9.27;6.05;;;;;;;1.51;93.36;96916.13;5087933;28;20051;-66
2023/02/02 02:03:34;;;;;;;7.15;6.00;;;;;;;1.48;93.25;96921.44;5093456;28;20498;-67
2023/02/02 02:06:04;;;;;;;6.25;5.38;;;;;;;1.60;92.83;96914.94;5091086;28;20056;-60
2023/02/02 02:08:38;;;;;;;8.93;7.38;;;;;;;1.46;93.40;96928.44;5106164;27;20028;-62
2023/02/02 02:11:05;;;;;;;9.27;8.07;;;;;;;1.35;94.85;96922.78;5094160;28;20492;-62
2023/02/02 02:16:25;;;;;;;10.20;9.10;;;;;;;1.00;95.88;96916.19;5095391;28;20052;-63
2023/02/02 02:19:13;;;;;;;14.73;10.90;;;;;;;1.23;94.82;96917.13;5096245;28;20020;-62
2023/02/02 02:28:19;;;;;;;13.95;10.48;;;;;;;0.69;97.73;96911.19;5087861;28;20536;-61
2023/02/02 02:30:53;;;;;;;18.77;11.13;;;;;;;0.54;98.32;96912.53;5094545;28;20034;-61
2023/02/02 02:33:44;;;;;;;16.10;12.55;;;;;;;1.00;95.33;96921.38;5095445;28;20034;-61
2023/02/02 02:36:50;;;;;;;13.68;10.80;;;;;;;0.70;97.05;96920.66;5056962;28;20075;-62
2023/02/02 02:39:44;;;;;;;14.05;10.23;;;;;;;0.49;98.64;96923.06;5068470;28;20177;-62
2023/02/02 02:42:19;;;;;;;12.95;10.65;;;;;;;0.35;98.79;96933.88;5045357;28;20036;-62
2023/02/02 02:44:47;;;;;;;10.93;9.75;;;;;;;0.27;99.93;96934.09;5091428;28;20782;-73
2023/02/02 02:47:12;;;;;;;12.07;8.82;;;;;;;0.27;99.98;96925.50;5096291;28;20107;-64
2023/02/02 02:49:42;;;;;;;12.05;9.38;;;;;;;0.28;99.92;96928.03;5096579;28;20107;-64
2023/02/02 02:52:08;;;;;;;9.07;7.72;;;;;;;0.29;99.63;96928.88;5088540;28;20157;-64
2023/02/02 02:54:38;;;;;;;9.73;8.50;;;;;;;0.30;99.78;96929.72;5094911;28;20114;-64
2023/02/02 02:57:12;;;;;;;10.60;8.35;;;;;;;0.54;97.33;96928.09;5086499;28;20028;-64
2023/02/02 02:59:53;;;;;;;9.65;7.45;;;;;;;0.50;97.02;96931.69;5090185;28;20024;-64
2023/02/02 03:02:52;;;;;;;8.85;7.43;;;;;;;0.43;98.37;96938.81;5095427;28;20037;-62
2023/02/02 03:05:25;;;;;;;8.75;7.93;;;;;;;0.39;98.91;96934.63;5095306;28;20012;-62
2023/02/02 03:08:00;;;;;;;12.85;11.07;;;;;;;0.33;99.38;96924.44;5097306;28;20099;-60
2023/02/02 03:10:29;;;;;;;12.70;9.90;;;;;;;0.28;99.52;96932.38;5093471;28;20119;-60
2023/02/02 03:12:55;;;;;;;10.18;7.97;;;;;;;0.24;99.62;96933.38;5089121;28;20039;-60
2023/02/02 03:15:21;;;;;;;10.65;9.00;;;;;;;0.20;100.00;96934.34;5090857;28;20051;-60
2023/02/02 03:17:49;;;;;;;8.85;7.95;;;;;;;0.17;99.87;96934.44;5086778;28;20496;-60
2023/02/02 03:20:14;;;;;;;9.43;8.18;;;;;;;0.17;99.89;96934.44;5093391;28;20092;-60
2023/02/02 03:22:40;;;;;;;10.32;7.28;;;;;;;0.13;100.00;96938.88;5087865;28;20561;-72
2023/02/02 03:25:06;;;;;;;9.82;7.00;;;;;;;0.10;100.00;96941.53;5087052;28;20040;-62
2023/02/02 03:27:32;;;;;;;7.45;6.68;;;;;;;0.06;100.00;96952.88;5093168;28;20035;-62
2023/02/02 03:29:58;;;;;;;6.25;5.70;;;;;;;0.06;100.00;96950.28;5088083;28;20413;-61
2023/02/02 03:32:23;;;;;;;6.72;6.13;;;;;;;0.02;100.00;96944.38;5090884;28;20032;-62
2023/02/02 03:34:49;;;;;;;7.18;6.47;;;;;;;0.02;100.00;96949.56;5091362;28;20027;-61
2023/02/02 03:37:15;;;;;;;6.88;6.18;;;;;;;0.02;100.00;96951.28;5096089;28;20031;-61
2023/02/02 03:39:40;;;;;;;7.18;6.47;;;;;;;-0.03;100.00;96954.88;5094399;28;20604;-62
2023/02/02 03:42:05;;;;;;;8.00;6.78;;;;;;;-0.02;100.00;96950.53;5092490;28;20107;-62
2023/02/02 03:44:31;;;;;;;10.90;7.68;;;;;;;-0.03;100.00;96949.69;5086692;28;20036;-62
2023/02/02 03:46:56;;;;;;;7.45;6.78;;;;;;;-0.03;100.00;96943.66;5092924;28;20401;-62
2023/02/02 03:49:21;;;;;;;9.30;7.05;;;;;;;-0.02;100.00;96950.53;5089067;28;20379;-61
2023/02/02 03:51:47;;;;;;;7.15;6.40;;;;;;;-0.05;100.00;96948.03;5091993;28;20110;-62
2023/02/02 03:54:13;;;;;;;11.10;7.72;;;;;;;-0.13;100.00;96945.66;5090864;28;20027;-62
2023/02/02 03:56:38;;;;;;;8.48;7.10;;;;;;;-0.19;100.00;96944.13;5084230;28;20027;-61
2023/02/02 03:59:04;;;;;;;8.18;7.20;;;;;;;-0.23;100.00;96947.66;5098282;28;20069;-62
2023/02/02 04:01:30;;;;;;;8.25;7.05;;;;;;;-0.31;100.00;96944.47;5091503;28;20039;-60
2023/02/02 04:03:56;;;;;;;8.68;6.78;;;;;;;-0.36;100.00;96947.19;5095663;28;20035;-60
2023/02/02 04:06:23;;;;;;;8.70;6.60;;;;;;;-0.39;100.00;96942.09;5095436;28;20142;-60
2023/02/02 04:08:49;;;;;;;7.93;6.75;;;;;;;-0.41;100.00;96948.22;5086258;28;20064;-60
2023/02/02 04:11:15;;;;;;;7.15;5.82;;;;;;;-0.50;100.00;96939.81;5093889;28;20103;-60
2023/02/02 04:13:42;;;;;;;13.23;7.88;;;;;;;-0.56;100.00;96937.41;5087549;28;20103;-59
2023/02/02 04:16:08;;;;;;;30.77;15.70;;;;;;;-0.34;100.00;96934.22;5089073;28;20034;-60
2023/02/02 04:18:33;;;;;;;29.90;16.52;;;;;;;-0.53;100.00;96929.56;5090989;28;20345;-60
2023/02/02 04:21:00;;;;;;;29.08;15.07;;;;;;;-0.60;100.00;96928.88;5087193;28;20020;-70
2023/02/02 04:23:26;;;;;;;26.55;14.55;;;;;;;-0.65;100.00;96930.75;5094436;28;20402;-73
2023/02/02 04:25:52;;;;;;;25.10;14.40;;;;;;;-0.77;100.00;96931.09;5081262;28;20036;-74
2023/02/02 04:28:17;;;;;;;28.10;15.25;;;;;;;-0.83;100.00;96928.66;5089700;28;20030;-73
2023/02/02 04:30:43;;;;;;;20.63;14.23;;;;;;;-0.92;100.00;96935.78;5090327;28;20066;-74
2023/02/02 04:33:08;;;;;;;22.08;12.57;;;;;;;-1.00;100.00;96937.69;5090828;28;20024;-73
2023/02/02 04:35:33;;;;;;;21.13;11.80;;;;;;;-1.01;100.00;96933.41;5093114;28;20469;-73
2023/02/02 04:37:59;;;;;;;21.35;12.57;;;;;;;-1.02;100.00;96934.31;5085545;28;20032;-74
2023/02/02 04:40:24;;;;;;;20.77;13.07;;;;;;;-1.09;100.00;96930.19;5088516;28;20171;-60
2023/02/02 04:42:50;;;;;;;21.38;11.70;;;;;;;-1.09;100.00;96935.38;5089547;28;20043;-66
2023/02/02 04:45:15;;;;;;;20.85;13.38;;;;;;;-1.14;100.00;96937.22;5089259;28;20153;-66
2023/02/02 04:47:40;;;;;;;25.27;16.38;;;;;;;-1.18;100.00;96939.91;5089413;28;20023;-66
2023/02/02 04:50:07;;;;;;;26.95;17.00;;;;;;;-1.21;100.00;96932.22;5093080;28;20024;-66
2023/02/02 04:52:32;;;;;;;25.77;16.42;;;;;;;-1.24;100.00;96937.44;5093079;28;20094;-66
2023/02/02 04:54:57;;;;;;;23.05;17.30;;;;;;;-1.30;100.00;96932.44;5088337;28;20036;-67
2023/02/02 04:57:23;;;;;;;24.77;15.68;;;;;;;-1.36;100.00;96933.44;5088469;28;20028;-66
2023/02/02 04:59:48;;;;;;;24.27;15.15;;;;;;;-1.41;100.00;96937.03;5090913;28;20102;-66
2023/02/02 05:02:13;;;;;;;21.92;13.68;;;;;;;-1.45;100.00;96929.34;5093719;28;20040;-71
2023/02/02 05:04:39;;;;;;;15.13;12.52;;;;;;;-1.41;100.00;96927.53;5088847;28;20035;-70
2023/02/02 05:07:04;;;;;;;17.55;12.50;;;;;;;-1.46;100.00;96927.63;5092465;28;20686;-70
2023/02/02 05:09:30;;;;;;;18.33;12.13;;;;;;;-1.55;100.00;96938.22;5085996;28;20504;-71
2023/02/02 05:11:55;;;;;;;16.90;13.13;;;;;;;-1.63;100.00;96940.13;5091248;28;20443;-71
2023/02/02 05:14:20;;;;;;;13.63;10.55;;;;;;;-1.65;100.00;96944.50;5092945;28;20020;-71
2023/02/02 05:16:46;;;;;;;18.15;10.60;;;;;;;-1.70;100.00;96942.00;5089415;28;20024;-71
2023/02/02 05:19:11;;;;;;;15.55;10.63;;;;;;;-1.77;100.00;96951.63;5088830;28;20066;-64
2023/02/02 05:21:37;;;;;;;11.35;10.10;;;;;;;-1.81;100.00;96952.59;5093383;28;20020;-62
2023/02/02 05:24:02;;;;;;;13.02;10.25;;;;;;;-1.86;100.00;96957.00;5084142;28;20486;-62
2023/02/02 05:26:28;;;;;;;12.50;10.10;;;;;;;-1.80;100.00;96961.16;5057117;28;20390;-62
2023/02/02 05:28:55;;;;;;;10.90;9.25;;;;;;;-1.81;100.00;96968.06;5090900;28;20024;-62
2023/02/02 05:31:20;;;;;;;12.45;10.98;;;;;;;-1.88;100.00;96969.94;5085787;28;20038;-63
2023/02/02 05:33:45;;;;;;;18.75;12.95;;;;;;;-1.89;100.00;96968.25;5080425;28;20032;-63
2023/02/02 05:36:12;;;;;;;10.18;9.15;;;;;;;-1.92;100.00;96964.88;5088425;28;20037;-62
2023/02/02 05:38:37;;;;;;;13.82;9.90;;;;;;;-1.95;100.00;96963.22;5092266;28;20032;-64
2023/02/02 05:41:04;;;;;;;12.52;9.43;;;;;;;-1.99;100.00;96963.31;5093436;28;20081;-74
2023/02/02 05:43:31;;;;;;;12.77;10.73;;;;;;;-1.96;100.00;96969.28;5093049;28;20035;-74
2023/02/02 05:45:56;;;;;;;13.90;10.88;;;;;;;-2.01;100.00;96971.09;5073000;28;20031;-74
2023/02/02 05:48:22;;;;;;;12.85;11.32;;;;;;;-2.03;100.00;96976.28;5088199;28;20523;-74
2023/02/02 05:51:00;;;;;;;15.27;12.65;;;;;;;-2.03;100.00;96973.72;5073176;28;20008;-73
2023/02/02 05:53:27;;;;;;;17.35;14.18;;;;;;;-1.90;100.00;96968.25;5088486;28;20089;-74
2023/02/02 05:55:52;;;;;;;15.27;13.45;;;;;;;-1.91;100.00;96971.72;5089312;28;20109;-62
2023/02/02 05:58:17;;;;;;;14.10;12.55;;;;;;;-1.97;100.00;96979.63;5088240;28;20032;-65
2023/02/02 06:00:43;;;;;;;17.17;13.57;;;;;;;-2.02;100.00;96978.00;5086084;28;20123;-64
2023/02/02 06:03:08;;;;;;;16.45;12.00;;;;;;;-2.06;100.00;96978.94;5094612;28;20096;-64
2023/02/02 06:05:33;;;;;;;15.85;13.45;;;;;;;-2.10;100.00;96977.31;5091884;28;20055;-64
2023/02/02 06:07:59;;;;;;;13.52;11.75;;;;;;;-2.12;100.00;96983.38;5085596;28;20035;-64
2023/02/02 06:10:24;;;;;;;14.82;11.90;;;;;;;-2.19;100.00;96978.34;5088199;28;20020;-63
2023/02/02 06:12:50;;;;;;;12.65;11.38;;;;;;;-2.23;100.00;96981.03;5090180;28;20100;-63
2023/02/02 06:15:15;;;;;;;14.60;10.95;;;;;;;-2.23;100.00;96986.19;5072072;28;20040;-62
2023/02/02 06:17:40;;;;;;;12.55;11.35;;;;;;;-2.24;100.00;96975.00;5088598;28;20047;-70
2023/02/02 06:20:06;;;;;;;12.88;11.32;;;;;;;-2.22;100.00;96977.56;5086432;28;20040;-61
2023/02/02 06:22:31;;;;;;;14.10;10.40;;;;;;;-2.20;100.00;96975.78;5088316;28;20031;-60
2023/02/02 06:24:57;;;;;;;12.35;10.15;;;;;;;-2.17;100.00;96974.00;5093149;28;20476;-60
2023/02/02 06:27:23;;;;;;;18.25;13.73;;;;;;;-2.19;100.00;96982.66;5089100;28;20023;-60
2023/02/02 06:29:48;;;;;;;18.30;14.73;;;;;;;-2.20;100.00;96979.25;5094119;28;20008;-60
2023/02/02 06:32:13;;;;;;;14.25;12.23;;;;;;;-2.24;100.00;96989.66;5089943;28;20028;-60
2023/02/02 06:34:39;;;;;;;15.95;14.30;;;;;;;-2.26;100.00;96988.84;5087171;28;20028;-60
2023/02/02 06:37:04;;;;;;;17.55;15.75;;;;;;;-2.25;100.00;96993.09;5087960;28;20024;-60
2023/02/02 06:39:29;;;;;;;20.00;15.05;;;;;;;-2.24;100.00;96999.97;5088240;28;20023;-72
2023/02/02 06:41:55;;;;;;;19.45;16.05;;;;;;;-2.33;100.00;97001.00;5086292;28;20024;-73
2023/02/02 06:44:20;;;;;;;17.52;15.35;;;;;;;-2.37;100.00;96995.03;5086685;28;20080;-73
2023/02/02 06:46:46;;;;;;;26.27;18.52;;;;;;;-2.36;100.00;96995.91;5089563;28;20039;-72
2023/02/02 06:49:11;;;;;;;26.73;18.35;;;;;;;-2.38;100.00;96998.50;5087283;28;20141;-75
2023/02/02 06:51:37;;;;;;;21.02;15.88;;;;;;;-2.40;100.00;96997.69;5095206;28;20134;-70
2023/02/02 06:54:02;;;;;;;15.90;13.55;;;;;;;-2.42;100.00;97002.03;5095223;28;20509;-62
2023/02/02 06:56:28;;;;;;;19.40;15.40;;;;;;;-2.46;100.00;97005.56;5093121;28;20154;-73
2023/02/02 06:58:54;;;;;;;17.80;12.73;;;;;;;-2.46;100.00;97001.22;5096877;28;20512;-62
2023/02/02 07:01:19;;;;;;;18.30;15.05;;;;;;;-2.48;100.00;97002.16;5095332;28;20393;-63
2023/02/02 07:03:47;;;;;;;16.23;13.68;;;;;;;-2.47;100.00;97003.84;5086666;28;20055;-62
2023/02/02 07:06:17;;;;;;;17.27;15.38;;;;;;;-2.47;100.00;97003.84;5088235;28;20509;-62
2023/02/02 07:08:43;;;;;;;22.30;17.40;;;;;;;-2.49;100.00;97005.63;5092152;28;20093;-62
2023/02/02 07:11:09;;;;;;;21.75;19.25;;;;;;;-2.50;100.00;97003.91;5095044;28;20439;-64
2023/02/02 07:13:35;;;;;;;23.08;18.95;;;;;;;-2.52;100.00;96997.94;5092645;28;20035;-62
2023/02/02 07:16:05;;;;;;;22.55;19.40;;;;;;;-2.55;100.00;96995.41;5095691;28;20023;-69
2023/02/02 07:18:30;;;;;;;25.98;20.55;;;;;;;-2.53;100.00;96998.81;5094442;28;20401;-68
2023/02/02 07:20:59;;;;;;;31.48;26.42;;;;;;;-2.52;100.00;96992.78;5093894;28;20042;-72
2023/02/02 07:23:26;;;;;;;29.95;25.20;;;;;;;-2.46;100.00;96996.06;5095924;28;20059;-71
2023/02/02 07:26:06;;;;;;;26.85;21.25;;;;;;;-2.38;100.00;97003.66;5094032;28;20028;-70
2023/02/02 07:28:32;;;;;;;24.02;20.92;;;;;;;-2.40;100.00;97007.16;5097350;28;20034;-70
2023/02/02 07:30:58;;;;;;;24.35;19.15;;;;;;;-2.39;100.00;97014.84;5080632;28;20111;-71
2023/02/02 07:33:24;;;;;;;23.77;18.35;;;;;;;-2.41;100.00;97024.38;5095982;28;20036;-68
2023/02/02 07:35:49;;;;;;;20.60;17.90;;;;;;;-2.37;100.00;97023.41;5074851;28;20058;-62
2023/02/02 07:38:15;;;;;;;19.42;17.23;;;;;;;-2.36;100.00;97027.69;5093116;28;20031;-63
2023/02/02 07:40:40;;;;;;;23.52;19.77;;;;;;;-2.33;100.00;97029.38;5092384;28;20506;-64
2023/02/02 07:43:06;;;;;;;20.77;18.55;;;;;;;-2.31;100.00;97030.19;5094429;28;20670;-63
2023/02/02 07:45:31;;;;;;;20.02;17.98;;;;;;;-2.32;100.00;97034.53;5096582;28;20410;-62
2023/02/02 07:47:59;;;;;;;20.83;18.73;;;;;;;-2.27;100.00;97036.16;5095366;28;20490;-62
2023/02/02 07:50:26;;;;;;;22.65;20.25;;;;;;;-2.25;100.00;97032.66;5096062;28;20454;-63
2023/02/02 07:52:52;;;;;;;22.73;20.15;;;;;;;-2.25;100.00;97030.06;5072388;28;20422;-72
2023/02/02 07:55:18;;;;;;;24.23;19.88;;;;;;;-2.23;100.00;97032.63;5091912;28;20027;-77
2023/02/02 07:57:43;;;;;;;24.02;20.50;;;;;;;-2.23;100.00;97032.63;5092023;28;20024;-65
2023/02/02 08:00:09;;;;;;;27.70;22.27;;;;;;;-2.24;100.00;97033.50;5094799;28;20134;-64
2023/02/02 08:02:35;;;;;;;30.85;22.23;;;;;;;-2.22;100.00;97036.91;5096573;28;20065;-65
2023/02/02 08:05:00;;;;;;;26.20;20.70;;;;;;;-2.21;100.00;97034.31;5072200;28;20032;-65
2023/02/02 08:07:26;;;;;;;30.45;20.73;;;;;;;-2.16;100.00;97045.38;5095641;28;20028;-65
2023/02/02 08:09:51;;;;;;;26.75;18.95;;;;;;;-2.13;100.00;97039.28;5090474;28;20028;-64
2023/02/02 08:12:18;;;;;;;27.77;18.90;;;;;;;-2.11;100.00;97044.44;5091628;28;20073;-65
2023/02/02 08:14:43;;;;;;;24.38;19.25;;;;;;;-2.11;100.00;97047.84;5093287;28;20125;-65
2023/02/02 08:17:08;;;;;;;26.77;17.83;;;;;;;-2.10;100.00;97052.16;5095191;28;20106;-65
2023/02/02 08:19:34;;;;;;;26.67;16.80;;;;;;;-2.09;100.00;97046.13;5091860;28;20073;-65
2023/02/02 08:21:59;;;;;;;22.30;13.80;;;;;;;-2.06;100.00;97046.06;5094815;28;20023;-65
2023/02/02 08:24:25;;;;;;;13.43;11.02;;;;;;;-2.02;100.00;97050.25;5095861;28;20028;-65
2023/02/02 08:26:50;;;;;;;18.60;12.75;;;;;;;-2.00;100.00;97050.22;5091420;28;20486;-66
2023/02/02 08:29:16;;;;;;;15.57;13.20;;;;;;;-2.02;100.00;97042.53;5094334;28;20447;-65
2023/02/02 08:31:43;;;;;;;19.42;14.93;;;;;;;-1.96;100.00;97058.75;5091619;28;20027;-61
2023/02/02 08:34:09;;;;;;;19.95;15.88;;;;;;;-1.90;100.00;97064.66;5091652;28;20039;-71
2023/02/02 08:36:34;;;;;;;19.00;14.70;;;;;;;-1.87;100.00;97071.50;5089953;28;20028;-72
2023/02/02 08:39:03;;;;;;;18.83;14.30;;;;;;;-1.89;100.00;97063.78;5088676;28;20077;-71
2023/02/02 08:41:28;;;;;;;16.67;13.60;;;;;;;-1.88;100.00;97070.63;5088363;28;20055;-71
2023/02/02 08:43:53;;;;;;;21.88;12.73;;;;;;;-1.91;100.00;97068.13;5095201;28;20768;-71
2023/02/02 08:46:20;;;;;;;15.48;13.15;;;;;;;-1.88;100.00;97080.97;5091711;28;20518;-72
2023/02/02 08:48:46;;;;;;;13.85;11.52;;;;;;;-1.83;100.00;97078.28;5091392;28;20481;-71
2023/02/02 08:51:14;;;;;;;17.88;11.57;;;;;;;-1.78;100.00;97070.44;5087340;28;20021;-65
2023/02/02 08:53:40;;;;;;;14.98;11.18;;;;;;;-1.70;100.00;97068.56;5090534;28;20023;-67
2023/02/02 08:56:17;;;;;;;18.13;14.00;;;;;;;-1.68;100.00;97076.25;5087398;28;20036;-66
2023/02/02 08:58:49;;;;;;;18.23;15.13;;;;;;;-1.66;100.00;97077.06;5083436;28;20023;-67
2023/02/02 09:01:18;;;;;;;16.35;13.40;;;;;;;-1.68;100.00;97071.94;5089407;28;20023;-67
2023/02/02 09:03:44;;;;;;;55.92;35.33;;;;;;;-1.69;100.00;97074.56;5088200;28;20027;-67
2023/02/02 09:06:13;;;;;;;67.30;40.60;;;;;;;-1.52;100.00;97072.47;5089953;28;20020;-66
2023/02/02 09:08:38;;;;;;;82.80;51.67;;;;;;;-1.18;100.00;97068.25;5093006;28;20043;-65
2023/02/02 09:11:12;;;;;;;56.25;35.80;;;;;;;-0.63;100.00;97067.81;5091569;28;20027;-65
2023/02/02 09:13:39;;;;;;;54.70;35.10;;;;;;;-0.24;100.00;97074.56;5087269;28;20028;-66
2023/02/02 09:16:07;;;;;;;40.92;27.73;;;;;;;0.09;100.00;97069.34;5088506;28;20077;-66
2023/02/02 09:18:33;;;;;;;24.20;17.85;;;;;;;0.39;99.64;97064.19;5090481;28;20024;-66
2023/02/02 09:21:00;;;;;;;22.83;16.42;;;;;;;0.61;96.88;97058.34;5088716;28;20138;-66
2023/02/02 09:23:27;;;;;;;18.20;15.57;;;;;;;1.01;95.74;97054.50;5089549;28;20024;-66
2023/02/02 09:25:53;;;;;;;102.35;57.33;;;;;;;1.38;92.95;97061.06;5065486;28;20047;-66
2023/02/02 09:28:18;;;;;;;37.55;26.95;;;;;;;1.61;90.62;97054.25;5088314;28;20566;-66
2023/02/02 09:30:43;;;;;;;10.52;9.05;;;;;;;1.88;89.11;97048.13;5088746;28;20546;-65
2023/02/02 09:33:09;;;;;;;19.58;14.85;;;;;;;2.15;88.46;97051.50;5088220;28;20450;-62
2023/02/02 09:35:34;;;;;;;14.38;11.18;;;;;;;2.52;86.53;97049.25;5089880;28;20111;-62
2023/02/02 09:37:59;;;;;;;11.93;9.60;;;;;;;2.87;85.12;97049.63;5091700;28;20070;-62
2023/02/02 09:40:26;;;;;;;20.58;15.25;;;;;;;3.26;82.57;97061.09;5090918;28;20417;-63
2023/02/02 09:43:31;;;;;;;14.77;12.60;;;;;;;3.55;80.55;97054.69;5086911;28;20047;-62
2023/02/02 09:46:07;;;;;;;11.20;9.10;;;;;;;4.02;78.10;97063.13;5091311;28;20520;-63
2023/02/02 09:48:47;;;;;;;7.18;6.47;;;;;;;4.21;75.36;97060.53;5090906;28;20779;-63
2023/02/02 09:51:18;;;;;;;8.20;6.63;;;;;;;4.42;73.13;97065.69;5093009;28;20016;-68
2023/02/02 09:54:00;;;;;;;5.82;5.30;;;;;;;4.46;72.71;97071.63;5090402;28;20501;-67
2023/02/02 09:56:33;;;;;;;7.22;6.32;;;;;;;4.85;72.25;97079.34;5093935;28;20024;-68
2023/02/02 09:59:00;;;;;;;5.75;5.10;;;;;;;4.92;70.44;97079.91;5086026;28;20028;-68
2023/02/02 10:01:32;;;;;;;6.50;5.93;;;;;;;5.16;69.40;97075.25;5096139;28;20019;-67
2023/02/02 10:04:05;;;;;;;8.50;6.85;;;;;;;5.24;68.55;97084.50;5086664;28;20542;-67
2023/02/02 10:06:35;;;;;;;7.10;6.10;;;;;;;5.37;69.31;97092.59;5089420;28;20311;-67
2023/02/02 10:09:39;;;;;;;7.80;6.43;;;;;;;5.40;66.14;97090.66;5085961;28;20056;-61
2023/02/02 10:12:39;;;;;;;7.25;6.20;;;;;;;5.27;67.09;97090.41;5088711;28;20110;-61
2023/02/02 10:15:40;;;;;;;7.75;6.55;;;;;;;5.29;64.88;97085.13;5089791;28;20444;-61
2023/02/02 10:18:22;;;;;;;7.85;6.38;;;;;;;5.25;67.11;97091.44;5092290;28;20485;-61
2023/02/02 10:20:54;;;;;;;6.55;5.93;;;;;;;5.36;67.50;97102.19;5096126;28;20384;-62
2023/02/02 10:23:36;;;;;;;6.80;6.20;;;;;;;5.30;66.87;97097.25;5088502;28;20493;-61
2023/02/02 10:26:19;;;;;;;9.73;6.78;;;;;;;5.48;68.23;97092.91;5089922;28;20052;-61
2023/02/02 10:29:14;;;;;;;8.35;5.80;;;;;;;5.66;68.83;97093.75;5091820;28;20047;-64
2023/02/02 10:32:04;;;;;;;6.95;6.18;;;;;;;5.85;67.20;97098.91;5080897;28;20479;-67
2023/02/02 10:34:47;;;;;;;6.22;5.68;;;;;;;5.71;63.97;97102.22;5100503;28;20550;-67
2023/02/02 10:37:16;;;;;;;8.73;6.13;;;;;;;5.72;66.65;97096.06;5091985;28;20020;-67
2023/02/02 10:39:46;;;;;;;7.60;5.88;;;;;;;5.85;65.63;97095.41;5096349;28;20024;-67
2023/02/02 10:42:19;;;;;;;6.32;5.75;;;;;;;5.91;63.71;97094.28;5092445;28;20445;-67
2023/02/02 10:44:53;;;;;;;7.47;6.68;;;;;;;6.00;63.91;97084.19;5097064;28;20552;-67
2023/02/02 10:47:38;;;;;;;8.73;7.82;;;;;;;6.19;63.40;97095.47;5092475;28;20063;-68
2023/02/02 10:50:12;;;;;;;9.40;7.32;;;;;;;6.42;62.64;97097.75;5092784;28;20078;-67
2023/02/02 10:52:43;;;;;;;8.23;6.93;;;;;;;6.50;62.76;97092.09;5098802;28;20048;-67
2023/02/02 10:55:08;;;;;;;11.93;9.05;;;;;;;6.62;61.78;97082.72;5091364;28;20032;-67
2023/02/02 10:57:59;;;;;;;11.63;8.20;;;;;;;6.70;61.57;97077.09;5093705;28;20045;-67
2023/02/02 11:00:33;;;;;;;10.05;6.20;;;;;;;6.86;61.14;97077.13;5091064;28;20595;-67
2023/02/02 11:03:03;;;;;;;7.88;6.47;;;;;;;6.85;61.06;97068.41;5090846;28;20024;-67
2023/02/02 11:08:34;;;;;;;8.60;7.78;;;;;;;7.18;60.63;97063.97;5092646;28;20027;-68
2023/02/02 11:11:19;;;;;;;6.78;6.18;;;;;;;7.26;58.86;97051.28;5092099;28;20051;-69
2023/02/02 11:14:06;;;;;;;7.83;6.77;;;;;;;7.60;59.22;97045.84;5085243;28;20149;-68
2023/02/02 11:16:36;;;;;;;6.25;5.10;;;;;;;7.60;56.74;97048.47;5092691;28;20023;-69
2023/02/02 11:19:21;;;;;;;6.28;5.72;;;;;;;7.76;55.81;97048.44;5091657;28;20054;-68
2023/02/02 11:21:49;;;;;;;6.50;5.93;;;;;;;7.87;56.85;97050.44;5095418;28;20028;-68
2023/02/02 11:24:25;;;;;;;7.15;6.22;;;;;;;8.05;55.35;97052.84;5094694;28;20095;-69
2023/02/02 11:26:54;;;;;;;7.57;6.05;;;;;;;8.07;54.59;97051.84;5086782;28;20015;-74
2023/02/02 11:29:27;;;;;;;7.90;6.00;;;;;;;8.05;54.85;97053.72;5097253;28;20035;-64
2023/02/02 11:31:53;;;;;;;8.18;5.88;;;;;;;8.07;53.28;97056.22;5088059;28;20089;-64
2023/02/02 11:34:22;;;;;;;6.85;5.57;;;;;;;8.10;53.48;97051.66;5091757;28;20043;-63
2023/02/02 11:37:23;;;;;;;7.20;5.55;;;;;;;8.15;54.12;97048.75;5095578;28;20027;-63
2023/02/02 11:39:49;;;;;;;5.25;4.72;;;;;;;8.45;53.64;97042.53;5010588;28;20030;-63
2023/02/02 11:42:17;;;;;;;5.85;5.13;;;;;;;8.22;53.75;97050.06;5058847;28;20420;-63
2023/02/02 11:44:49;;;;;;;5.85;5.35;;;;;;;8.32;53.43;97059.06;5092156;28;20044;-66
2023/02/02 11:47:29;;;;;;;7.18;5.60;;;;;;;8.44;53.76;97057.47;5094653;28;20042;-61